Fuenterrabia, Spain
Current Conditions -  °F | °C
As of 6:30 PM on Thursday 18 Dec 2014 (Local Time) from LESO Reporting Station
Scattered Clouds Scattered Clouds  
Wind Chill: 54°   Ceiling: Unl
Heat Index: 54°   Visibility: 6mi
Dew Point: 50°   Wind: 1mph
Humidity: 88%   Direction: NA
Pressure: 30.42"   Gusts: NA
Location:  43.37°N, 1.79°W
Report Text: LESO 181730Z VRB01KT 9999 FEW025 SCT037 12/10 Q1030
Loading
Personal Weather Stations






























Interactive Weather Map New forecast layout! Learn more

10-Day Weather Forecast

Advertisements
Track Severe Weather on mobile